DLH210 ENBR-EDDM
Flight info
| Callsign | DLH210 |
|---|---|
| Flight time | N/A |
| Altitude | 350000 |
| Route | TUXIL4D TUXIL DCT ZOL DCT ATTUS DCT ABGUS Z94 GALMA T703 LULAR T105 LANDU LANDU2A |
| Aircraft | B77W/H-SDE1E2E3FGHIJ2J3J4J5M1RWXY/LB1D1 |
Departure
| Time | 2026-04-28 15:36 |
|---|---|
| Airport | Bergen Airport, Flesland (ENBR) |
Arrival
| Time | N/A |
|---|---|
| Airport | Munich Airport (EDDM) |
| Time | Latitude | Longitude | Altitude | Speed | Heading |
|---|---|---|---|---|---|
| 2026-04-28 15:24 | 60.28332 | 5.22714 | 150 ft | 0 kts | 213° |
| 2026-04-28 15:34 | 60.28322 | 5.22693 | 150 ft | 5 kts | 232° |
| 2026-04-28 15:34 | 60.28297 | 5.22591 | 150 ft | 12 kts | 240° |
| 2026-04-28 15:34 | 60.28209 | 5.22542 | 149 ft | 17 kts | 174° |
| 2026-04-28 15:34 | 60.28163 | 5.22555 | 149 ft | 0 kts | 173° |
| 2026-04-28 15:35 | 60.28135 | 5.22559 | 149 ft | 8 kts | 179° |
| 2026-04-28 15:35 | 60.28065 | 5.22263 | 145 ft | 20 kts | 314° |
| 2026-04-28 15:35 | 60.28089 | 5.22234 | 146 ft | 0 kts | 337° |
| 2026-04-28 15:36 | 60.28091 | 5.22233 | 146 ft | 0 kts | 340° |
| 2026-04-28 15:36 | 60.28155 | 5.22219 | 147 ft | 46 kts | 353° |
| 2026-04-28 15:36 | 60.28913 | 5.21961 | 155 ft | 174 kts | 351° |
| 2026-04-28 15:36 | 60.30361 | 5.21494 | 1023 ft | 215 kts | 348° |
| 2026-04-28 15:37 | 60.31844 | 5.21014 | 3089 ft | 220 kts | 350° |
| 2026-04-28 15:37 | 60.33413 | 5.20600 | 4346 ft | 234 kts | 2° |
| 2026-04-28 15:37 | 60.34980 | 5.21704 | 5234 ft | 251 kts | 36° |
| 2026-04-28 15:37 | 60.35781 | 5.23415 | 5972 ft | 258 kts | 54° |
| 2026-04-28 15:38 | 60.36500 | 5.28104 | 7501 ft | 273 kts | 87° |
| 2026-04-28 15:38 | 60.36080 | 5.31903 | 8642 ft | 285 kts | 114° |
| 2026-04-28 15:38 | 60.34779 | 5.35022 | 9728 ft | 299 kts | 141° |
| 2026-04-28 15:38 | 60.32934 | 5.37147 | 10658 ft | 314 kts | 153° |
| 2026-04-28 15:39 | 60.30825 | 5.38896 | 11103 ft | 345 kts | 158° |
| 2026-04-28 15:39 | 60.28447 | 5.40612 | 11435 ft | 376 kts | 160° |
| 2026-04-28 15:39 | 60.25917 | 5.42353 | 12262 ft | 391 kts | 160° |
| 2026-04-28 15:39 | 60.23323 | 5.44136 | 13267 ft | 400 kts | 159° |
| 2026-04-28 15:40 | 60.20653 | 5.45997 | 14322 ft | 409 kts | 159° |
| 2026-04-28 15:40 | 60.17942 | 5.47923 | 15231 ft | 417 kts | 158° |
| 2026-04-28 15:40 | 60.15187 | 5.49907 | 16261 ft | 422 kts | 158° |
| 2026-04-28 15:40 | 60.12440 | 5.51902 | 17286 ft | 428 kts | 158° |
| 2026-04-28 15:41 | 60.09579 | 5.53989 | 18279 ft | 436 kts | 158° |
| 2026-04-28 15:41 | 60.06747 | 5.56058 | 19178 ft | 443 kts | 158° |
| 2026-04-28 15:41 | 60.03857 | 5.58162 | 20088 ft | 447 kts | 157° |
| 2026-04-28 15:41 | 60.00910 | 5.60303 | 21073 ft | 451 kts | 157° |
| 2026-04-28 15:42 | 59.97937 | 5.62458 | 21933 ft | 457 kts | 158° |
| 2026-04-28 15:42 | 59.94926 | 5.64636 | 22774 ft | 462 kts | 158° |
| 2026-04-28 15:42 | 59.91880 | 5.66832 | 23619 ft | 468 kts | 158° |
| 2026-04-28 15:42 | 59.88794 | 5.69049 | 24399 ft | 473 kts | 158° |
| 2026-04-28 15:43 | 59.85690 | 5.71271 | 25123 ft | 477 kts | 158° |
| 2026-04-28 15:43 | 59.82546 | 5.73515 | 25885 ft | 481 kts | 158° |
| 2026-04-28 15:43 | 59.79385 | 5.75767 | 26659 ft | 484 kts | 158° |
| 2026-04-28 15:43 | 59.76197 | 5.78034 | 27256 ft | 491 kts | 157° |
| 2026-04-28 15:44 | 59.74043 | 5.79566 | 27544 ft | 498 kts | 157° |
| 2026-04-28 15:44 | 59.69680 | 5.82661 | 28226 ft | 507 kts | 157° |
| 2026-04-28 15:44 | 59.67425 | 5.84257 | 28653 ft | 510 kts | 157° |
| 2026-04-28 15:44 | 59.64067 | 5.86629 | 29318 ft | 514 kts | 157° |
| 2026-04-28 15:45 | 59.59583 | 5.89790 | 30087 ft | 520 kts | 157° |
| 2026-04-28 15:45 | 59.57268 | 5.91420 | 30446 ft | 523 kts | 157° |
| 2026-04-28 15:45 | 59.53865 | 5.93810 | 30954 ft | 526 kts | 157° |
| 2026-04-28 15:45 | 59.50431 | 5.96213 | 31692 ft | 522 kts | 156° |
| 2026-04-28 15:46 | 59.47008 | 5.98603 | 32349 ft | 521 kts | 156° |
| 2026-04-28 15:46 | 59.43604 | 6.00972 | 33035 ft | 519 kts | 156° |
| 2026-04-28 15:46 | 59.40207 | 6.03333 | 33735 ft | 517 kts | 156° |
| 2026-04-28 15:46 | 59.36812 | 6.05691 | 34338 ft | 517 kts | 156° |
| 2026-04-28 15:47 | 59.33432 | 6.08037 | 34868 ft | 516 kts | 156° |
| 2026-04-28 15:47 | 59.30048 | 6.10381 | 35388 ft | 515 kts | 156° |
| 2026-04-28 15:47 | 59.23234 | 6.15089 | 35470 ft | 517 kts | 156° |
| 2026-04-28 15:48 | 59.16480 | 6.19719 | 35462 ft | 512 kts | 156° |
| 2026-04-28 15:48 | 59.09709 | 6.24350 | 35514 ft | 524 kts | 156° |
| 2026-04-28 15:49 | 59.02729 | 6.29114 | 35534 ft | 538 kts | 156° |
| 2026-04-28 15:49 | 58.95723 | 6.33864 | 35533 ft | 550 kts | 156° |
| 2026-04-28 15:50 | 58.88436 | 6.38774 | 35517 ft | 558 kts | 156° |
| 2026-04-28 15:50 | 58.81158 | 6.43651 | 35502 ft | 558 kts | 156° |
| 2026-04-28 15:51 | 58.73753 | 6.48599 | 35507 ft | 558 kts | 156° |
| 2026-04-28 15:51 | 58.66476 | 6.53448 | 35512 ft | 556 kts | 156° |
| 2026-04-28 15:52 | 58.59166 | 6.58297 | 35487 ft | 555 kts | 156° |
| 2026-04-28 15:52 | 58.51872 | 6.63111 | 35503 ft | 553 kts | 156° |
| 2026-04-28 15:53 | 58.44588 | 6.67898 | 35500 ft | 553 kts | 156° |
| 2026-04-28 15:53 | 58.37300 | 6.72666 | 35504 ft | 553 kts | 156° |
| 2026-04-28 15:54 | 58.30024 | 6.77406 | 35502 ft | 553 kts | 156° |
| 2026-04-28 15:54 | 58.22727 | 6.82136 | 35541 ft | 554 kts | 156° |
| 2026-04-28 15:55 | 58.15419 | 6.86861 | 35518 ft | 554 kts | 156° |
| 2026-04-28 15:55 | 58.08105 | 6.91564 | 35498 ft | 555 kts | 156° |
| 2026-04-28 15:56 | 58.00780 | 6.96249 | 35510 ft | 555 kts | 156° |
| 2026-04-28 15:56 | 57.93735 | 7.00736 | 35512 ft | 554 kts | 156° |
| 2026-04-28 15:57 | 57.86434 | 7.05368 | 35513 ft | 553 kts | 156° |
| 2026-04-28 15:57 | 57.79158 | 7.09968 | 35515 ft | 552 kts | 156° |
| 2026-04-28 15:58 | 57.71919 | 7.14525 | 35521 ft | 552 kts | 156° |
| 2026-04-28 15:58 | 57.64652 | 7.19079 | 35515 ft | 551 kts | 157° |
| 2026-04-28 15:59 | 57.57375 | 7.23620 | 35587 ft | 551 kts | 157° |
| 2026-04-28 15:59 | 57.50091 | 7.28150 | 35552 ft | 552 kts | 157° |
| 2026-04-28 16:00 | 57.42793 | 7.32666 | 35531 ft | 553 kts | 157° |
| 2026-04-28 16:00 | 57.35472 | 7.37177 | 35531 ft | 553 kts | 157° |
| 2026-04-28 16:01 | 57.28168 | 7.41658 | 35524 ft | 553 kts | 157° |
| 2026-04-28 16:01 | 57.20853 | 7.46126 | 35525 ft | 553 kts | 157° |
| 2026-04-28 16:02 | 57.13555 | 7.50565 | 35530 ft | 552 kts | 157° |
| 2026-04-28 16:02 | 57.06275 | 7.54976 | 35521 ft | 551 kts | 157° |
| 2026-04-28 16:03 | 56.98997 | 7.59368 | 35519 ft | 550 kts | 157° |
| 2026-04-28 16:03 | 56.91721 | 7.63741 | 35520 ft | 550 kts | 157° |
| 2026-04-28 16:04 | 56.84447 | 7.68096 | 35520 ft | 550 kts | 158° |
| 2026-04-28 16:04 | 56.77194 | 7.72420 | 35510 ft | 548 kts | 158° |
| 2026-04-28 16:05 | 56.69947 | 7.76721 | 35510 ft | 547 kts | 158° |
| 2026-04-28 16:05 | 56.62695 | 7.81008 | 35511 ft | 547 kts | 158° |
| 2026-04-28 16:06 | 56.55455 | 7.85270 | 35509 ft | 546 kts | 158° |
| 2026-04-28 16:06 | 56.48224 | 7.89509 | 35505 ft | 546 kts | 158° |
| 2026-04-28 16:07 | 56.40997 | 7.93732 | 35504 ft | 546 kts | 158° |
| 2026-04-28 16:08 | 56.30202 | 8.00010 | 35504 ft | 546 kts | 158° |
| 2026-04-28 16:08 | 56.23124 | 8.04104 | 35521 ft | 545 kts | 158° |
| 2026-04-28 16:09 | 56.12318 | 8.10324 | 35487 ft | 545 kts | 158° |
| 2026-04-28 16:10 | 56.01467 | 8.16531 | 35498 ft | 545 kts | 158° |
| 2026-04-28 16:10 | 55.90648 | 8.22684 | 35477 ft | 544 kts | 158° |
| 2026-04-28 16:11 | 55.76224 | 8.30833 | 35488 ft | 543 kts | 158° |
| 2026-04-28 16:12 | 55.65408 | 8.36902 | 35464 ft | 544 kts | 158° |
| 2026-04-28 16:13 | 55.54623 | 8.42921 | 35470 ft | 545 kts | 158° |
| 2026-04-28 16:14 | 55.40153 | 8.50937 | 35444 ft | 545 kts | 158° |
| 2026-04-28 16:15 | 55.25695 | 8.58887 | 35452 ft | 544 kts | 158° |
| 2026-04-28 16:15 | 55.18471 | 8.62837 | 35455 ft | 544 kts | 158° |
| 2026-04-28 16:16 | 55.07643 | 8.68729 | 35455 ft | 543 kts | 158° |
| 2026-04-28 16:17 | 54.96829 | 8.74583 | 35446 ft | 543 kts | 159° |
| 2026-04-28 16:17 | 54.89613 | 8.78545 | 35438 ft | 540 kts | 156° |
| 2026-04-28 16:18 | 54.82764 | 8.83500 | 35454 ft | 536 kts | 149° |
| 2026-04-28 16:18 | 54.76028 | 8.89261 | 35448 ft | 540 kts | 148° |
| 2026-04-28 16:19 | 54.69275 | 8.94973 | 35433 ft | 540 kts | 149° |
| 2026-04-28 16:19 | 54.62709 | 9.00287 | 35439 ft | 539 kts | 150° |
| 2026-04-28 16:20 | 54.55899 | 9.05667 | 35423 ft | 537 kts | 150° |
| 2026-04-28 16:20 | 54.49110 | 9.11011 | 35427 ft | 536 kts | 150° |
| 2026-04-28 16:21 | 54.42332 | 9.16361 | 35430 ft | 536 kts | 150° |
| 2026-04-28 16:21 | 54.35558 | 9.21708 | 35426 ft | 535 kts | 150° |
| 2026-04-28 16:22 | 54.28799 | 9.27021 | 35423 ft | 534 kts | 150° |
| 2026-04-28 16:22 | 54.22042 | 9.32308 | 35422 ft | 534 kts | 150° |
| 2026-04-28 16:23 | 54.15294 | 9.37567 | 35422 ft | 534 kts | 150° |
| 2026-04-28 16:23 | 54.08532 | 9.42855 | 35418 ft | 533 kts | 150° |
| 2026-04-28 16:24 | 54.01809 | 9.48181 | 35415 ft | 532 kts | 150° |
| 2026-04-28 16:24 | 53.95153 | 9.53454 | 35430 ft | 533 kts | 150° |
| 2026-04-28 16:25 | 53.88424 | 9.58754 | 35417 ft | 534 kts | 151° |
| 2026-04-28 16:25 | 53.81677 | 9.64036 | 35413 ft | 533 kts | 151° |
| 2026-04-28 16:26 | 53.76069 | 9.68407 | 35414 ft | 533 kts | 151° |
| 2026-04-28 16:26 | 53.68201 | 9.74517 | 35414 ft | 532 kts | 151° |
| 2026-04-28 16:27 | 53.62597 | 9.78854 | 35388 ft | 532 kts | 151° |
| 2026-04-28 16:28 | 53.51430 | 9.87469 | 35387 ft | 530 kts | 152° |
| 2026-04-28 16:28 | 53.45815 | 9.91780 | 35390 ft | 529 kts | 152° |
| 2026-04-28 16:29 | 53.35746 | 9.99474 | 35382 ft | 529 kts | 152° |
| 2026-04-28 16:30 | 53.25942 | 10.06939 | 35375 ft | 528 kts | 153° |
| 2026-04-28 16:30 | 53.19269 | 10.11994 | 35375 ft | 527 kts | 153° |
| 2026-04-28 16:31 | 53.12586 | 10.17034 | 35369 ft | 526 kts | 153° |
| 2026-04-28 16:31 | 53.05917 | 10.22047 | 35386 ft | 526 kts | 154° |
| 2026-04-28 16:32 | 52.99252 | 10.27051 | 35356 ft | 527 kts | 154° |
| 2026-04-28 16:32 | 52.89210 | 10.34544 | 35346 ft | 527 kts | 154° |
| 2026-04-28 16:33 | 52.83645 | 10.38678 | 35359 ft | 527 kts | 154° |
| 2026-04-28 16:33 | 52.75857 | 10.44450 | 35355 ft | 527 kts | 154° |
| 2026-04-28 16:34 | 52.69170 | 10.49390 | 35351 ft | 527 kts | 154° |
| 2026-04-28 16:34 | 52.62477 | 10.54313 | 35344 ft | 526 kts | 154° |
| 2026-04-28 16:35 | 52.55779 | 10.59226 | 35342 ft | 526 kts | 155° |
| 2026-04-28 16:35 | 52.49095 | 10.64117 | 35335 ft | 526 kts | 155° |
| 2026-04-28 16:36 | 52.42408 | 10.68989 | 35333 ft | 525 kts | 155° |
| 2026-04-28 16:36 | 52.35773 | 10.73802 | 35329 ft | 525 kts | 155° |
| 2026-04-28 16:37 | 52.29089 | 10.78634 | 35333 ft | 524 kts | 155° |
| 2026-04-28 16:38 | 52.19082 | 10.85848 | 35337 ft | 524 kts | 156° |
| 2026-04-28 16:38 | 52.12402 | 10.90644 | 35332 ft | 524 kts | 156° |
| 2026-04-28 16:39 | 52.05720 | 10.95425 | 35333 ft | 525 kts | 156° |
| 2026-04-28 16:39 | 51.99160 | 11.00101 | 35323 ft | 525 kts | 157° |
| 2026-04-28 16:40 | 51.92568 | 11.04787 | 35319 ft | 524 kts | 157° |
| 2026-04-28 16:40 | 51.85878 | 11.09525 | 35341 ft | 524 kts | 157° |
| 2026-04-28 16:41 | 51.79195 | 11.14242 | 35319 ft | 524 kts | 157° |
| 2026-04-28 16:41 | 51.72519 | 11.18940 | 35313 ft | 523 kts | 158° |
| 2026-04-28 16:42 | 51.65842 | 11.23630 | 35316 ft | 524 kts | 158° |
| 2026-04-28 16:42 | 51.59156 | 11.28307 | 35323 ft | 524 kts | 158° |
| 2026-04-28 16:43 | 51.52463 | 11.32968 | 35313 ft | 524 kts | 158° |
| 2026-04-28 16:43 | 51.45807 | 11.37594 | 35320 ft | 524 kts | 159° |
| 2026-04-28 16:44 | 51.39106 | 11.42238 | 35316 ft | 525 kts | 159° |
| 2026-04-28 16:44 | 51.32388 | 11.46873 | 35311 ft | 525 kts | 159° |
| 2026-04-28 16:45 | 51.25675 | 11.51490 | 35339 ft | 525 kts | 159° |
| 2026-04-28 16:45 | 51.18957 | 11.56103 | 35314 ft | 526 kts | 160° |
| 2026-04-28 16:46 | 51.12215 | 11.60716 | 35301 ft | 527 kts | 160° |
| 2026-04-28 16:46 | 51.05472 | 11.65309 | 35314 ft | 528 kts | 160° |
| 2026-04-28 16:47 | 50.98753 | 11.69870 | 35299 ft | 528 kts | 160° |
| 2026-04-28 16:47 | 50.91985 | 11.74457 | 35283 ft | 528 kts | 160° |
| 2026-04-28 16:48 | 50.85227 | 11.79022 | 35290 ft | 528 kts | 160° |
| 2026-04-28 16:48 | 50.78460 | 11.83575 | 35291 ft | 529 kts | 161° |
| 2026-04-28 16:49 | 50.71688 | 11.88118 | 35263 ft | 529 kts | 161° |
| 2026-04-28 16:49 | 50.64902 | 11.92660 | 35272 ft | 529 kts | 161° |
| 2026-04-28 16:50 | 50.58111 | 11.97186 | 35269 ft | 530 kts | 161° |
| 2026-04-28 16:50 | 50.51494 | 12.01581 | 35259 ft | 530 kts | 161° |
| 2026-04-28 16:51 | 50.44745 | 12.06051 | 35220 ft | 531 kts | 161° |
| 2026-04-28 16:51 | 50.41289 | 12.08335 | 34801 ft | 533 kts | 162° |
| 2026-04-28 16:51 | 50.37881 | 12.10588 | 34321 ft | 528 kts | 162° |
| 2026-04-28 16:51 | 50.34556 | 12.12787 | 33784 ft | 524 kts | 162° |
| 2026-04-28 16:52 | 50.31180 | 12.15009 | 33238 ft | 525 kts | 162° |
| 2026-04-28 16:52 | 50.27809 | 12.17220 | 32725 ft | 524 kts | 162° |
| 2026-04-28 16:52 | 50.24466 | 12.19411 | 32192 ft | 519 kts | 161° |
| 2026-04-28 16:52 | 50.21169 | 12.21572 | 31631 ft | 511 kts | 162° |
| 2026-04-28 16:53 | 50.17911 | 12.23706 | 31147 ft | 504 kts | 161° |
| 2026-04-28 16:53 | 50.14697 | 12.25805 | 30633 ft | 497 kts | 161° |
| 2026-04-28 16:53 | 50.11487 | 12.27895 | 30147 ft | 501 kts | 161° |
| 2026-04-28 16:53 | 50.08283 | 12.29977 | 29632 ft | 495 kts | 161° |
| 2026-04-28 16:54 | 50.05069 | 12.32061 | 29250 ft | 508 kts | 161° |
| 2026-04-28 16:54 | 50.01776 | 12.34193 | 28870 ft | 516 kts | 161° |
| 2026-04-28 16:54 | 49.98475 | 12.36332 | 28462 ft | 515 kts | 161° |
| 2026-04-28 16:54 | 49.96285 | 12.37752 | 28219 ft | 514 kts | 161° |
| 2026-04-28 16:55 | 49.91901 | 12.40592 | 27725 ft | 514 kts | 160° |
| 2026-04-28 16:55 | 49.88600 | 12.42725 | 27361 ft | 515 kts | 160° |
| 2026-04-28 16:55 | 49.85283 | 12.44864 | 27000 ft | 515 kts | 160° |
| 2026-04-28 16:55 | 49.81979 | 12.46990 | 26631 ft | 513 kts | 160° |
| 2026-04-28 16:56 | 49.78683 | 12.49108 | 26273 ft | 512 kts | 160° |
| 2026-04-28 16:56 | 49.75400 | 12.51214 | 25924 ft | 510 kts | 160° |
| 2026-04-28 16:56 | 49.72133 | 12.53309 | 25797 ft | 492 kts | 160° |
| 2026-04-28 16:56 | 49.69004 | 12.55314 | 25742 ft | 495 kts | 160° |
| 2026-04-28 16:57 | 49.65820 | 12.57344 | 25703 ft | 494 kts | 161° |
| 2026-04-28 16:57 | 49.62637 | 12.59372 | 25647 ft | 496 kts | 160° |
| 2026-04-28 16:57 | 49.59446 | 12.61403 | 25604 ft | 496 kts | 160° |
| 2026-04-28 16:57 | 49.56240 | 12.63442 | 25567 ft | 500 kts | 160° |
| 2026-04-28 16:58 | 49.53033 | 12.65480 | 25504 ft | 498 kts | 160° |
| 2026-04-28 16:58 | 49.49822 | 12.67519 | 25457 ft | 497 kts | 160° |
| 2026-04-28 16:58 | 49.46631 | 12.69544 | 25399 ft | 496 kts | 161° |
| 2026-04-28 16:58 | 49.43444 | 12.71560 | 25338 ft | 496 kts | 161° |
| 2026-04-28 16:59 | 49.40226 | 12.73436 | 25272 ft | 494 kts | 168° |
| 2026-04-28 16:59 | 49.36846 | 12.74151 | 25262 ft | 486 kts | 184° |
| 2026-04-28 16:59 | 49.33537 | 12.73704 | 25201 ft | 468 kts | 195° |
| 2026-04-28 16:59 | 49.30530 | 12.72266 | 25092 ft | 438 kts | 208° |
| 2026-04-28 17:00 | 49.27862 | 12.70336 | 24938 ft | 409 kts | 211° |
| 2026-04-28 17:00 | 49.25381 | 12.68491 | 24775 ft | 387 kts | 210° |
| 2026-04-28 17:00 | 49.22947 | 12.66861 | 24573 ft | 378 kts | 207° |
| 2026-04-28 17:00 | 49.20524 | 12.65377 | 24239 ft | 375 kts | 206° |
| 2026-04-28 17:01 | 49.18097 | 12.63922 | 23830 ft | 372 kts | 206° |
| 2026-04-28 17:01 | 49.15691 | 12.62467 | 23370 ft | 370 kts | 206° |
| 2026-04-28 17:01 | 49.13338 | 12.61023 | 22919 ft | 368 kts | 206° |
| 2026-04-28 17:01 | 49.10945 | 12.59535 | 22476 ft | 365 kts | 206° |
| 2026-04-28 17:02 | 49.08601 | 12.58065 | 22061 ft | 362 kts | 206° |
| 2026-04-28 17:02 | 49.07059 | 12.57094 | 21781 ft | 360 kts | 206° |
| 2026-04-28 17:02 | 49.03985 | 12.55153 | 21231 ft | 357 kts | 206° |
| 2026-04-28 17:02 | 49.01690 | 12.53702 | 20817 ft | 355 kts | 206° |
| 2026-04-28 17:03 | 48.97195 | 12.50865 | 20008 ft | 350 kts | 206° |
| 2026-04-28 17:03 | 48.94951 | 12.49452 | 19601 ft | 348 kts | 206° |
| 2026-04-28 17:03 | 48.92716 | 12.48046 | 19207 ft | 347 kts | 206° |
| 2026-04-28 17:04 | 48.88272 | 12.45254 | 18407 ft | 344 kts | 206° |
| 2026-04-28 17:04 | 48.86062 | 12.43867 | 17941 ft | 343 kts | 206° |
| 2026-04-28 17:05 | 48.81674 | 12.41117 | 17090 ft | 338 kts | 205° |
| 2026-04-28 17:05 | 48.79504 | 12.39760 | 16697 ft | 336 kts | 205° |
| 2026-04-28 17:05 | 48.77346 | 12.38412 | 16290 ft | 334 kts | 205° |
| 2026-04-28 17:06 | 48.73100 | 12.35765 | 15507 ft | 330 kts | 205° |
| 2026-04-28 17:06 | 48.70978 | 12.34442 | 15133 ft | 328 kts | 205° |
| 2026-04-28 17:06 | 48.66777 | 12.31827 | 14355 ft | 324 kts | 205° |
| 2026-04-28 17:07 | 48.64693 | 12.30535 | 13970 ft | 323 kts | 205° |
| 2026-04-28 17:07 | 48.62615 | 12.29236 | 13552 ft | 322 kts | 206° |
| 2026-04-28 17:07 | 48.60771 | 12.27477 | 13119 ft | 312 kts | 228° |
| 2026-04-28 17:07 | 48.59701 | 12.24750 | 12855 ft | 299 kts | 257° |
| 2026-04-28 17:08 | 48.59401 | 12.21649 | 12668 ft | 293 kts | 269° |
| 2026-04-28 17:08 | 48.59297 | 12.18535 | 12417 ft | 299 kts | 269° |
| 2026-04-28 17:08 | 48.59200 | 12.15403 | 12163 ft | 299 kts | 269° |
| 2026-04-28 17:08 | 48.59097 | 12.12348 | 11920 ft | 299 kts | 268° |
| 2026-04-28 17:09 | 48.59017 | 12.10144 | 11729 ft | 298 kts | 268° |
| 2026-04-28 17:09 | 48.58899 | 12.07015 | 11496 ft | 298 kts | 269° |
| 2026-04-28 17:09 | 48.58779 | 12.03874 | 11236 ft | 300 kts | 268° |
| 2026-04-28 17:09 | 48.58658 | 12.00734 | 10987 ft | 300 kts | 268° |
| 2026-04-28 17:10 | 48.58537 | 11.97598 | 10727 ft | 297 kts | 268° |
| 2026-04-28 17:10 | 48.58417 | 11.94500 | 10520 ft | 293 kts | 268° |
| 2026-04-28 17:10 | 48.58257 | 11.90476 | 10185 ft | 287 kts | 268° |
| 2026-04-28 17:10 | 48.58140 | 11.87500 | 9932 ft | 282 kts | 268° |
| 2026-04-28 17:11 | 48.58024 | 11.84555 | 9673 ft | 278 kts | 268° |
| 2026-04-28 17:11 | 48.57947 | 11.82595 | 9502 ft | 276 kts | 268° |
| 2026-04-28 17:11 | 48.57834 | 11.79741 | 9275 ft | 275 kts | 267° |
| 2026-04-28 17:11 | 48.57719 | 11.76877 | 9045 ft | 273 kts | 267° |
| 2026-04-28 17:12 | 48.57605 | 11.74017 | 8814 ft | 272 kts | 268° |
| 2026-04-28 17:12 | 48.57453 | 11.70232 | 8525 ft | 276 kts | 268° |
| 2026-04-28 17:12 | 48.57374 | 11.68263 | 8383 ft | 278 kts | 268° |
| 2026-04-28 17:12 | 48.57254 | 11.65327 | 8136 ft | 282 kts | 268° |
| 2026-04-28 17:13 | 48.56975 | 11.62431 | 7863 ft | 280 kts | 249° |
| 2026-04-28 17:13 | 48.55902 | 11.60003 | 7661 ft | 279 kts | 221° |
| 2026-04-28 17:13 | 48.54274 | 11.58468 | 7425 ft | 274 kts | 197° |
| 2026-04-28 17:13 | 48.52523 | 11.57479 | 7205 ft | 270 kts | 208° |
| 2026-04-28 17:14 | 48.51135 | 11.55528 | 6981 ft | 279 kts | 237° |
| 2026-04-28 17:14 | 48.50300 | 11.52876 | 6790 ft | 280 kts | 247° |
| 2026-04-28 17:14 | 48.49543 | 11.50191 | 6654 ft | 283 kts | 246° |
| 2026-04-28 17:14 | 48.48739 | 11.47515 | 6661 ft | 277 kts | 245° |
| 2026-04-28 17:15 | 48.47919 | 11.44879 | 6487 ft | 279 kts | 244° |
| 2026-04-28 17:15 | 48.47102 | 11.42268 | 6482 ft | 274 kts | 244° |
| 2026-04-28 17:15 | 48.46288 | 11.39654 | 6492 ft | 275 kts | 246° |
| 2026-04-28 17:15 | 48.45323 | 11.37190 | 6459 ft | 277 kts | 224° |
| 2026-04-28 17:16 | 48.43731 | 11.35609 | 6474 ft | 274 kts | 199° |
| 2026-04-28 17:16 | 48.41940 | 11.34691 | 6477 ft | 272 kts | 194° |
| 2026-04-28 17:16 | 48.40116 | 11.33887 | 6340 ft | 272 kts | 193° |
| 2026-04-28 17:16 | 48.38293 | 11.33149 | 5957 ft | 268 kts | 186° |
| 2026-04-28 17:17 | 48.36572 | 11.33385 | 5946 ft | 248 kts | 152° |
| 2026-04-28 17:17 | 48.35307 | 11.35116 | 5954 ft | 247 kts | 116° |
| 2026-04-28 17:17 | 48.34709 | 11.37546 | 5968 ft | 251 kts | 101° |
| 2026-04-28 17:17 | 48.34435 | 11.40115 | 5882 ft | 253 kts | 95° |
| 2026-04-28 17:18 | 48.34306 | 11.42727 | 5644 ft | 250 kts | 92° |
| 2026-04-28 17:18 | 48.34237 | 11.45312 | 5414 ft | 243 kts | 91° |
| 2026-04-28 17:18 | 48.34187 | 11.47789 | 5297 ft | 231 kts | 90° |
| 2026-04-28 17:18 | 48.34159 | 11.50130 | 5207 ft | 218 kts | 87° |
| 2026-04-28 17:19 | 48.34296 | 11.52331 | 5114 ft | 205 kts | 82° |
| 2026-04-28 17:19 | 48.34484 | 11.54408 | 5005 ft | 196 kts | 81° |
| 2026-04-28 17:19 | 48.34662 | 11.56387 | 4896 ft | 185 kts | 82° |
| 2026-04-28 17:19 | 48.34823 | 11.58265 | 4705 ft | 179 kts | 82° |
| 2026-04-28 17:20 | 48.34972 | 11.60092 | 4495 ft | 174 kts | 82° |
| 2026-04-28 17:20 | 48.35067 | 11.61268 | 4365 ft | 170 kts | 82° |
| 2026-04-28 17:20 | 48.35255 | 11.63620 | 4016 ft | 169 kts | 82° |
| 2026-04-28 17:20 | 48.35394 | 11.65389 | 3716 ft | 169 kts | 82° |
| 2026-04-28 17:21 | 48.35529 | 11.67100 | 3480 ft | 166 kts | 82° |
| 2026-04-28 17:21 | 48.35663 | 11.68810 | 3188 ft | 164 kts | 82° |
| 2026-04-28 17:21 | 48.35794 | 11.70510 | 2922 ft | 162 kts | 82° |
| 2026-04-28 17:22 | 48.36059 | 11.73906 | 2314 ft | 162 kts | 82° |
| 2026-04-28 17:22 | 48.36187 | 11.75568 | 2130 ft | 168 kts | 83° |
| 2026-04-28 17:22 | 48.36310 | 11.77317 | 1889 ft | 168 kts | 83° |
| 2026-04-28 17:23 | 48.36783 | 11.80793 | 3459 ft | 184 kts | 75° |
| 2026-04-28 17:23 | 48.37067 | 11.82428 | 4539 ft | 169 kts | 80° |
| 2026-04-28 17:23 | 48.37384 | 11.84173 | 4914 ft | 187 kts | 52° |
| 2026-04-28 17:23 | 48.38560 | 11.84967 | 5585 ft | 197 kts | 358° |
| 2026-04-28 17:24 | 48.39784 | 11.84071 | 6208 ft | 211 kts | 310° |
| 2026-04-28 17:24 | 48.40376 | 11.82022 | 6862 ft | 214 kts | 285° |
| 2026-04-28 17:24 | 48.40319 | 11.79534 | 6386 ft | 269 kts | 248° |
| 2026-04-28 17:24 | 48.39555 | 11.76972 | 6116 ft | 272 kts | 250° |
| 2026-04-28 17:25 | 48.39089 | 11.74189 | 5905 ft | 276 kts | 258° |
| 2026-04-28 17:25 | 48.38385 | 11.68498 | 5395 ft | 276 kts | 263° |
| 2026-04-28 17:25 | 48.38153 | 11.65644 | 5217 ft | 271 kts | 263° |
| 2026-04-28 17:26 | 48.37944 | 11.62846 | 5144 ft | 268 kts | 264° |
| 2026-04-28 17:26 | 48.37738 | 11.60061 | 5096 ft | 270 kts | 264° |
| 2026-04-28 17:26 | 48.37532 | 11.57292 | 5061 ft | 259 kts | 263° |
| 2026-04-28 17:26 | 48.37015 | 11.54840 | 5055 ft | 238 kts | 237° |
| 2026-04-28 17:27 | 48.35918 | 11.53203 | 5058 ft | 211 kts | 202° |
| 2026-04-28 17:27 | 48.34572 | 11.52757 | 4885 ft | 196 kts | 170° |
| 2026-04-28 17:27 | 48.33448 | 11.53573 | 4600 ft | 176 kts | 127° |
| 2026-04-28 17:27 | 48.32903 | 11.55150 | 4403 ft | 170 kts | 100° |
| 2026-04-28 17:28 | 48.32929 | 11.56893 | 4190 ft | 171 kts | 74° |
| 2026-04-28 17:28 | 48.33672 | 11.60948 | 3726 ft | 217 kts | 75° |
| 2026-04-28 17:28 | 48.34024 | 11.63091 | 3703 ft | 215 kts | 75° |